createdAt,value
2019-04-14T00:01:06.424Z,5.50
2019-04-14T00:03:45.353Z,5.63
2019-04-14T00:06:14.416Z,5.90
2019-04-14T00:08:43.741Z,5.43
2019-04-14T00:11:12.725Z,5.33
2019-04-14T00:13:41.601Z,5.30
2019-04-14T00:16:10.211Z,5.13
2019-04-14T00:18:40.357Z,5.53
2019-04-14T00:21:10.778Z,5.20
2019-04-14T00:23:41.244Z,5.57
2019-04-14T00:26:27.341Z,4.97
2019-04-14T00:28:57.913Z,4.43
2019-04-14T00:31:26.948Z,5.03
2019-04-14T00:33:58.564Z,5.17
2019-04-14T00:36:37.308Z,5.47
2019-04-14T00:39:16.230Z,4.90
2019-04-14T00:42:06.719Z,5.33
2019-04-14T00:45:04.779Z,5.40
2019-04-14T00:47:49.747Z,5.20
2019-04-14T00:50:08.019Z,4.60
2019-04-14T00:52:37.257Z,5.70
2019-04-14T00:55:07.574Z,4.37
2019-04-14T00:57:37.658Z,5.33
2019-04-14T01:00:08.116Z,5.00
2019-04-14T01:02:36.921Z,5.20
2019-04-14T01:05:06.623Z,4.83
2019-04-14T01:07:35.537Z,5.43
2019-04-14T01:10:04.558Z,5.53
2019-04-14T01:12:34.180Z,5.47
2019-04-14T01:15:03.172Z,5.00
2019-04-14T01:17:32.964Z,5.90
2019-04-14T01:20:01.786Z,5.20
2019-04-14T01:22:31.474Z,5.53
2019-04-14T01:25:00.142Z,4.80
2019-04-14T01:27:29.838Z,4.83
2019-04-14T01:29:58.547Z,5.40
2019-04-14T01:32:28.343Z,4.90
2019-04-14T01:34:58.817Z,5.00
2019-04-14T01:37:28.976Z,5.97
2019-04-14T01:39:58.833Z,5.50
2019-04-14T01:42:28.935Z,4.60
2019-04-14T01:44:59.168Z,4.87
2019-04-14T01:47:29.201Z,5.50
2019-04-14T01:49:57.925Z,5.70
2019-04-14T01:52:54.845Z,5.80
2019-04-14T01:55:42.297Z,5.40
2019-04-14T01:58:16.988Z,5.03
2019-04-14T02:00:51.609Z,4.97
2019-04-14T02:03:21.390Z,5.43
2019-04-14T02:05:51.753Z,5.80
2019-04-14T02:08:21.972Z,5.83
2019-04-14T02:10:52.033Z,5.57
2019-04-14T02:13:20.896Z,5.57
2019-04-14T02:15:50.650Z,5.43
2019-04-14T02:18:20.747Z,5.60
2019-04-14T02:20:49.500Z,5.97
2019-04-14T02:23:19.231Z,5.60
2019-04-14T02:25:49.260Z,5.50
2019-04-14T02:28:19.806Z,5.73
2019-04-14T02:31:00.155Z,5.60
2019-04-14T02:33:44.341Z,6.37
2019-04-14T02:36:21.978Z,5.93
2019-04-14T02:41:18.867Z,4.87
2019-04-14T02:43:51.451Z,4.63
2019-04-14T02:48:52.229Z,4.80
2019-04-14T02:51:19.417Z,4.83
2019-04-14T02:56:24.941Z,5.80
2019-04-14T02:58:55.215Z,5.27
2019-04-14T03:01:24.197Z,5.60
2019-04-14T03:03:50.758Z,5.00
2019-04-14T03:06:17.806Z,5.30
2019-04-14T03:08:59.112Z,4.80
2019-04-14T03:11:28.502Z,5.10
2019-04-14T03:13:51.461Z,5.83
2019-04-14T03:16:29.788Z,5.40
2019-04-14T03:19:18.309Z,4.70
2019-04-14T03:22:12.491Z,5.00
2019-04-14T03:24:35.841Z,4.80
2019-04-14T03:27:43.840Z,5.13
2019-04-14T03:30:39.523Z,5.17
2019-04-14T03:33:14.233Z,5.20
2019-04-14T03:37:59.482Z,5.37
2019-04-14T03:40:21.702Z,5.10
2019-04-14T03:42:54.273Z,5.30
2019-04-14T03:45:28.184Z,5.17
2019-04-14T03:48:00.630Z,5.23
2019-04-14T03:52:59.304Z,4.90
2019-04-14T03:55:11.345Z,4.87
2019-04-14T03:57:27.101Z,4.57
2019-04-14T03:59:56.281Z,4.87
2019-04-14T04:02:25.250Z,4.93
2019-04-14T04:04:53.878Z,5.03
2019-04-14T04:07:23.562Z,5.20
2019-04-14T04:10:05.108Z,4.87
2019-04-14T04:12:34.179Z,4.80
2019-04-14T04:15:03.941Z,4.63
2019-04-14T04:17:47.800Z,4.67
2019-04-14T04:20:34.968Z,4.50
2019-04-14T04:23:29.174Z,4.83
2019-04-14T04:26:13.109Z,5.00
2019-04-14T04:29:13.611Z,5.50
2019-04-14T04:32:04.061Z,4.77
2019-04-14T04:34:44.589Z,5.57
2019-04-14T04:37:45.451Z,4.80
2019-04-14T04:40:20.101Z,4.87
2019-04-14T04:42:50.434Z,5.00
2019-04-14T04:45:19.616Z,4.47
2019-04-14T04:47:49.192Z,5.40
2019-04-14T04:50:19.331Z,6.00
2019-04-14T04:52:49.656Z,4.97
2019-04-14T04:55:19.828Z,5.03
2019-04-14T04:57:48.734Z,5.20
2019-04-14T05:00:18.013Z,4.67
2019-04-14T05:02:48.410Z,4.93
2019-04-14T05:05:53.676Z,4.83
2019-04-14T05:08:24.044Z,4.63
2019-04-14T05:10:58.932Z,4.80
2019-04-14T05:13:40.189Z,4.93
2019-04-14T05:16:10.651Z,5.13
2019-04-14T05:18:39.871Z,5.30
2019-04-14T05:21:10.405Z,5.17
2019-04-14T05:23:39.364Z,4.80
2019-04-14T05:26:09.190Z,4.93
2019-04-14T05:28:37.960Z,4.83
2019-04-14T05:31:07.634Z,5.00
2019-04-14T05:33:36.569Z,5.00
2019-04-14T05:36:06.346Z,5.13
2019-04-14T05:38:36.905Z,4.83
2019-04-14T05:41:06.865Z,4.80
2019-04-14T05:43:45.010Z,5.27
2019-04-14T05:46:07.743Z,4.37
2019-04-14T05:48:36.659Z,4.73
2019-04-14T05:51:06.412Z,4.23
2019-04-14T05:53:35.503Z,4.30
2019-04-14T05:56:05.650Z,5.17
2019-04-14T05:58:34.696Z,4.70
2019-04-14T06:01:04.769Z,5.17
2019-04-14T06:03:34.228Z,4.87
2019-04-14T06:06:03.228Z,4.50
2019-04-14T06:08:32.676Z,4.13
2019-04-14T06:11:01.549Z,4.93
2019-04-14T06:13:30.463Z,5.20
2019-04-14T06:15:59.406Z,4.80
2019-04-14T06:18:34.433Z,5.10
2019-04-14T06:21:08.134Z,4.93
2019-04-14T06:23:37.108Z,5.80
2019-04-14T06:26:06.047Z,5.40
2019-04-14T06:28:35.155Z,4.97
2019-04-14T06:31:17.001Z,5.37
2019-04-14T06:34:05.230Z,5.33
2019-04-14T06:36:52.915Z,5.07
2019-04-14T06:39:30.284Z,5.30
2019-04-14T06:41:59.511Z,5.57
2019-04-14T06:44:28.128Z,5.37
2019-04-14T06:46:57.127Z,5.50
2019-04-14T06:49:25.849Z,5.83
2019-04-14T06:51:54.780Z,5.60
2019-04-14T06:54:23.908Z,5.63
2019-04-14T06:56:52.799Z,4.87
2019-04-14T06:59:21.549Z,5.30
2019-04-14T07:01:50.949Z,5.53
2019-04-14T07:04:20.092Z,5.97
2019-04-14T07:06:51.315Z,6.10
2019-04-14T07:09:19.547Z,6.40
2019-04-14T07:11:48.522Z,5.80
2019-04-14T07:14:17.389Z,6.70
2019-04-14T07:16:46.694Z,6.13
2019-04-14T07:19:15.364Z,6.43
2019-04-14T07:21:44.253Z,6.23
2019-04-14T07:24:13.368Z,6.73
2019-04-14T07:26:42.394Z,6.30
2019-04-14T07:29:11.540Z,6.47
2019-04-14T07:32:02.319Z,7.30
2019-04-14T07:34:59.366Z,7.00
2019-04-14T07:37:46.465Z,6.67
2019-04-14T07:40:39.935Z,6.73
2019-04-14T07:43:30.636Z,6.83
2019-04-14T07:46:27.586Z,7.50
2019-04-14T07:49:03.134Z,8.00
2019-04-14T07:51:54.151Z,7.53
2019-04-14T07:54:34.920Z,8.60
2019-04-14T07:57:19.668Z,7.63
2019-04-14T08:00:02.289Z,8.67
2019-04-14T08:02:52.813Z,8.20
2019-04-14T08:05:27.001Z,8.10
2019-04-14T08:07:55.682Z,9.10
2019-04-14T08:10:24.309Z,8.63
2019-04-14T08:12:53.944Z,8.10
2019-04-14T08:15:23.083Z,7.90
2019-04-14T08:17:51.964Z,8.50
2019-04-14T08:20:27.423Z,7.50
2019-04-14T08:22:51.484Z,8.63
2019-04-14T08:25:20.378Z,8.23
2019-04-14T08:27:49.239Z,7.90
2019-04-14T08:30:18.501Z,7.47
2019-04-14T08:32:47.149Z,8.40
2019-04-14T08:35:16.015Z,7.93
2019-04-14T08:37:45.177Z,7.90
2019-04-14T08:40:13.853Z,8.47
2019-04-14T08:43:17.112Z,8.07
2019-04-14T08:46:03.213Z,8.47
2019-04-14T08:48:50.616Z,8.23
2019-04-14T08:51:23.361Z,8.30
2019-04-14T08:53:59.155Z,8.83
2019-04-14T08:56:37.000Z,7.97
2019-04-14T08:59:30.699Z,9.73
2019-04-14T09:02:11.325Z,8.43
2019-04-14T09:05:11.559Z,9.20
2019-04-14T09:07:50.156Z,8.87
2019-04-14T09:10:22.734Z,8.67
2019-04-14T09:12:53.147Z,9.30
2019-04-14T09:15:24.836Z,9.43
2019-04-14T09:17:53.667Z,9.40
2019-04-14T09:20:24.995Z,8.87
2019-04-14T09:22:53.641Z,9.10
2019-04-14T09:25:22.503Z,9.23
2019-04-14T09:27:51.633Z,9.23
2019-04-14T09:30:20.372Z,9.07
2019-04-14T09:32:49.298Z,8.77
2019-04-14T09:35:17.898Z,9.80
2019-04-14T09:37:46.785Z,9.63
2019-04-14T09:40:15.475Z,9.70
2019-04-14T09:42:44.345Z,9.83
2019-04-14T09:45:13.317Z,8.83
2019-04-14T09:47:42.389Z,9.17
2019-04-14T09:50:11.406Z,9.37
2019-04-14T09:52:40.336Z,9.30
2019-04-14T09:55:09.024Z,8.83
2019-04-14T09:57:38.129Z,9.17
2019-04-14T10:00:08.470Z,8.50
2019-04-14T10:02:37.171Z,8.97
2019-04-14T10:05:06.083Z,8.97
2019-04-14T10:07:34.958Z,8.83
2019-04-14T10:10:05.387Z,7.37
2019-04-14T10:12:34.260Z,7.10
2019-04-14T10:15:03.146Z,7.77
2019-04-14T10:17:31.770Z,8.43
2019-04-14T10:20:00.674Z,7.53
2019-04-14T10:22:34.292Z,6.53
2019-04-14T10:25:00.390Z,7.87
2019-04-14T10:27:29.125Z,7.13
2019-04-14T10:29:57.752Z,7.97
2019-04-14T10:32:26.353Z,7.77
2019-04-14T10:34:55.469Z,6.53
2019-04-14T10:37:24.392Z,7.13
2019-04-14T10:39:53.226Z,7.00
2019-04-14T10:42:22.365Z,7.47
2019-04-14T10:44:51.439Z,6.53
2019-04-14T10:47:20.081Z,7.13
2019-04-14T10:49:49.012Z,7.37
2019-04-14T10:52:17.865Z,6.77
2019-04-14T10:54:46.715Z,7.10
2019-04-14T10:57:15.690Z,7.97
2019-04-14T10:59:44.775Z,6.87
2019-04-14T11:02:13.660Z,7.27
2019-04-14T11:04:42.304Z,7.50
2019-04-14T11:07:15.428Z,6.50
2019-04-14T11:09:44.414Z,6.93
2019-04-14T11:12:13.039Z,6.43
2019-04-14T11:14:42.037Z,6.67
2019-04-14T11:17:10.926Z,6.20
2019-04-14T11:19:39.646Z,5.83
2019-04-14T11:22:08.703Z,5.63
2019-04-14T11:24:37.557Z,5.67
2019-04-14T11:27:06.443Z,4.80
2019-04-14T11:29:35.785Z,4.40
2019-04-14T11:32:28.731Z,4.87
2019-04-14T11:35:12.057Z,4.13
2019-04-14T11:37:58.435Z,4.67
2019-04-14T11:40:30.433Z,3.90
2019-04-14T11:42:59.078Z,3.77
2019-04-14T11:45:27.708Z,4.03
2019-04-14T11:47:56.583Z,3.90
2019-04-14T11:50:25.459Z,4.23
2019-04-14T11:52:54.403Z,4.10
2019-04-14T11:55:23.842Z,3.20
2019-04-14T11:57:52.712Z,3.40
2019-04-14T12:00:39.284Z,3.70
2019-04-14T12:03:23.834Z,3.20
2019-04-14T12:06:17.709Z,3.13
2019-04-14T12:08:51.157Z,3.27
2019-04-14T12:11:19.775Z,3.63
2019-04-14T12:13:48.996Z,3.30
2019-04-14T12:16:17.886Z,3.23
2019-04-14T12:18:46.554Z,3.40
2019-04-14T12:21:15.502Z,3.30
2019-04-14T12:23:44.102Z,3.57
2019-04-14T12:26:12.729Z,3.57
2019-04-14T12:28:42.647Z,4.00
2019-04-14T12:31:13.002Z,3.87
2019-04-14T12:33:42.013Z,4.03
2019-04-14T12:36:12.868Z,3.90
2019-04-14T12:38:41.570Z,4.40
2019-04-14T12:41:15.376Z,4.17
2019-04-14T12:44:12.002Z,4.40
2019-04-14T12:46:47.639Z,3.97
2019-04-14T12:49:22.763Z,3.60
2019-04-14T12:52:20.543Z,4.20
2019-04-14T12:54:40.661Z,3.77
2019-04-14T12:57:09.523Z,3.93
2019-04-14T12:59:38.637Z,4.00
2019-04-14T13:02:32.793Z,3.63
2019-04-14T13:05:01.707Z,3.60
2019-04-14T13:07:30.569Z,3.87
2019-04-14T13:09:59.439Z,3.90
2019-04-14T13:12:28.430Z,3.37
2019-04-14T13:14:57.311Z,3.47
2019-04-14T13:17:26.204Z,3.57
2019-04-14T13:19:55.402Z,3.30
2019-04-14T13:22:33.688Z,3.13
2019-04-14T13:24:54.901Z,3.30
2019-04-14T13:27:23.528Z,3.40
2019-04-14T13:29:52.608Z,3.40
2019-04-14T13:32:21.506Z,3.37
2019-04-14T13:34:50.340Z,3.30
2019-04-14T13:37:18.973Z,3.73
2019-04-14T13:39:47.751Z,3.83
2019-04-14T13:42:16.612Z,3.27
2019-04-14T13:44:45.471Z,2.97
2019-04-14T13:47:14.352Z,3.40
2019-04-14T13:49:43.504Z,3.43
2019-04-14T13:52:12.440Z,3.50
2019-04-14T13:54:41.565Z,3.50
2019-04-14T13:57:10.685Z,3.70
2019-04-14T13:59:39.545Z,4.27
2019-04-14T14:02:08.192Z,4.03
2019-04-14T14:04:37.024Z,3.80
2019-04-14T14:07:06.551Z,4.10
2019-04-14T14:09:35.451Z,4.00
2019-04-14T14:12:13.840Z,3.67
2019-04-14T14:15:09.837Z,3.97
2019-04-14T14:17:43.931Z,4.27
2019-04-14T14:20:16.993Z,4.03
2019-04-14T14:23:00.097Z,4.37
2019-04-14T14:25:33.465Z,4.47
2019-04-14T14:28:02.599Z,4.70
2019-04-14T14:30:31.545Z,4.30
2019-04-14T14:33:00.263Z,4.70
2019-04-14T14:35:29.556Z,4.43
2019-04-14T14:37:58.192Z,4.70
2019-04-14T14:40:26.877Z,4.33
2019-04-14T14:42:55.972Z,4.20
2019-04-14T14:45:37.463Z,4.00
2019-04-14T14:48:15.570Z,4.60
2019-04-14T14:50:58.180Z,4.77
2019-04-14T14:53:27.330Z,4.37
2019-04-14T14:55:56.198Z,5.30
2019-04-14T14:58:25.100Z,5.67
2019-04-14T15:00:54.134Z,4.50
2019-04-14T15:03:23.042Z,4.50
2019-04-14T15:05:52.162Z,4.10
2019-04-14T15:08:21.109Z,4.50
2019-04-14T15:10:49.745Z,4.27
2019-04-14T15:13:18.914Z,4.33
2019-04-14T15:15:47.797Z,4.40
2019-04-14T15:18:16.563Z,4.20
2019-04-14T15:20:45.594Z,3.80
2019-04-14T15:23:24.234Z,3.63
2019-04-14T15:25:45.196Z,3.73
2019-04-14T15:28:15.742Z,3.70
2019-04-14T15:30:44.479Z,3.67
2019-04-14T15:33:13.327Z,3.40
2019-04-14T15:35:42.274Z,3.50
2019-04-14T15:38:11.184Z,3.23
2019-04-14T15:40:39.795Z,3.10
2019-04-14T15:43:08.646Z,3.27
2019-04-14T15:45:37.327Z,3.00
2019-04-14T15:48:06.572Z,3.37
2019-04-14T15:50:35.414Z,3.13
2019-04-14T15:53:04.044Z,3.00
2019-04-14T15:55:32.958Z,3.40
2019-04-14T15:58:09.951Z,3.23
2019-04-14T16:00:56.456Z,3.07
2019-04-14T16:03:30.584Z,3.30
2019-04-14T16:06:24.770Z,3.13
2019-04-14T16:09:00.858Z,3.70
2019-04-14T16:11:39.928Z,3.67
2019-04-14T16:14:24.014Z,3.30
2019-04-14T16:17:10.855Z,3.50
2019-04-14T16:19:45.874Z,3.20
2019-04-14T16:22:14.502Z,3.03
2019-04-14T16:24:43.651Z,2.80
2019-04-14T16:27:46.640Z,3.30
2019-04-14T16:30:24.812Z,2.57
2019-04-14T16:33:04.762Z,3.07
2019-04-14T16:35:33.614Z,3.10
2019-04-14T16:38:02.552Z,2.90
2019-04-14T16:40:31.178Z,3.13
2019-04-14T16:43:00.163Z,3.30
2019-04-14T16:45:31.799Z,3.77
2019-04-14T16:48:00.712Z,3.17
2019-04-14T16:50:29.647Z,3.27
2019-04-14T16:53:07.525Z,3.30
2019-04-14T16:56:01.558Z,2.90
2019-04-14T16:58:50.758Z,2.90
2019-04-14T17:01:38.408Z,2.77
2019-04-14T17:04:07.251Z,3.17
2019-04-14T17:06:36.376Z,3.00
2019-04-14T17:09:07.373Z,2.90
2019-04-14T17:11:36.470Z,3.17
2019-04-14T17:14:13.415Z,2.83
2019-04-14T17:17:05.048Z,3.60
2019-04-14T17:19:57.334Z,2.80
2019-04-14T17:22:35.769Z,2.77
2019-04-14T17:25:12.834Z,3.07
2019-04-14T17:27:50.586Z,3.03
2019-04-14T17:30:32.831Z,3.23
2019-04-14T17:33:11.271Z,2.93
2019-04-14T17:35:57.654Z,3.20
2019-04-14T17:38:32.051Z,3.33
2019-04-14T17:41:19.782Z,3.00
2019-04-14T17:44:04.348Z,3.10
2019-04-14T17:46:58.897Z,3.13
2019-04-14T17:49:43.240Z,3.70
2019-04-14T17:52:29.841Z,3.03
2019-04-14T17:55:08.984Z,3.10
2019-04-14T17:57:55.543Z,3.20
2019-04-14T18:00:35.662Z,3.23
2019-04-14T18:03:22.507Z,3.30
2019-04-14T18:05:57.644Z,3.63
2019-04-14T18:08:36.420Z,3.77
2019-04-14T18:11:28.395Z,2.90
2019-04-14T18:14:10.204Z,3.17
2019-04-14T18:16:47.520Z,3.13
2019-04-14T18:19:34.065Z,3.60
2019-04-14T18:22:03.188Z,3.20
2019-04-14T18:24:41.572Z,3.60
2019-04-14T18:27:02.683Z,3.50
2019-04-14T18:29:42.550Z,3.13
2019-04-14T18:32:16.351Z,3.40
2019-04-14T18:34:52.477Z,3.10
2019-04-14T18:37:30.094Z,3.00
2019-04-14T18:40:16.667Z,3.50
2019-04-14T18:42:52.140Z,3.30
2019-04-14T18:45:39.507Z,3.50
2019-04-14T18:48:36.163Z,2.87
2019-04-14T18:51:11.854Z,3.07
2019-04-14T18:54:08.782Z,3.10
2019-04-14T18:57:02.593Z,3.40
2019-04-14T18:59:44.423Z,3.00
2019-04-14T19:02:14.830Z,3.20
2019-04-14T19:04:43.949Z,2.97
2019-04-14T19:07:12.553Z,3.37
2019-04-14T19:09:41.485Z,2.97
2019-04-14T19:12:28.016Z,3.90
2019-04-14T19:15:03.947Z,3.17
2019-04-14T19:17:43.974Z,3.43
2019-04-14T19:20:13.771Z,2.83
2019-04-14T19:22:42.384Z,3.20
2019-04-14T19:25:11.367Z,3.27
2019-04-14T19:27:42.409Z,3.40
2019-04-14T19:30:11.163Z,3.67
2019-04-14T19:32:40.122Z,3.33
2019-04-14T19:35:09.079Z,3.57
2019-04-14T19:37:37.938Z,3.50
2019-04-14T19:40:07.543Z,3.43
2019-04-14T19:42:36.276Z,3.23
2019-04-14T19:45:05.802Z,3.10
2019-04-14T19:47:34.665Z,3.47
2019-04-14T19:50:03.373Z,3.73
2019-04-14T19:52:32.386Z,4.13
2019-04-14T19:55:01.304Z,4.07
2019-04-14T19:57:30.392Z,3.70
2019-04-14T19:59:59.243Z,3.43
2019-04-14T20:02:28.135Z,3.83
2019-04-14T20:04:56.728Z,3.20
2019-04-14T20:07:25.639Z,4.30
2019-04-14T20:09:54.265Z,3.57
2019-04-14T20:12:23.108Z,3.80
2019-04-14T20:14:52.336Z,3.23
2019-04-14T20:17:31.605Z,3.70
2019-04-14T20:20:18.335Z,3.47
2019-04-14T20:23:05.725Z,3.43
2019-04-14T20:26:05.998Z,3.33
2019-04-14T20:28:42.578Z,3.20
2019-04-14T20:31:24.642Z,3.70
2019-04-14T20:33:53.578Z,3.53
2019-04-14T20:36:22.465Z,4.10
2019-04-14T20:38:51.396Z,3.60
2019-04-14T20:41:20.272Z,3.47
2019-04-14T20:43:49.407Z,3.70
2019-04-14T20:46:20.476Z,3.40
2019-04-14T20:48:49.372Z,3.80
2019-04-14T20:51:18.090Z,4.27
2019-04-14T20:53:47.318Z,4.00
2019-04-14T20:56:16.024Z,4.07
2019-04-14T20:58:44.731Z,4.13
2019-04-14T21:01:13.773Z,4.17
2019-04-14T21:04:07.265Z,3.80
2019-04-14T21:06:56.043Z,3.97
2019-04-14T21:09:31.651Z,4.67
2019-04-14T21:12:22.571Z,3.77
2019-04-14T21:15:13.577Z,3.43
2019-04-14T21:17:49.007Z,4.20
2019-04-14T21:20:25.995Z,3.50
2019-04-14T21:23:14.418Z,4.03
2019-04-14T21:26:00.271Z,4.23
2019-04-14T21:28:36.771Z,4.13
2019-04-14T21:31:27.674Z,3.97
2019-04-14T21:34:21.722Z,4.27
2019-04-14T21:37:15.508Z,3.93
2019-04-14T21:40:06.184Z,4.23
2019-04-14T21:42:34.799Z,4.20
2019-04-14T21:45:04.028Z,4.27
2019-04-14T21:47:32.710Z,4.30
2019-04-14T21:50:01.806Z,4.30
2019-04-14T21:52:39.889Z,4.37
2019-04-14T21:55:08.785Z,3.77
2019-04-14T21:57:45.052Z,4.33
2019-04-14T22:00:39.793Z,4.00
2019-04-14T22:03:27.696Z,3.80
2019-04-14T22:06:05.953Z,4.30
2019-04-14T22:08:38.489Z,4.53
2019-04-14T22:11:08.793Z,4.30
2019-04-14T22:13:37.734Z,3.97
2019-04-14T22:16:06.454Z,4.27
2019-04-14T22:18:35.594Z,4.57
2019-04-14T22:21:04.335Z,4.37
2019-04-14T22:23:33.030Z,4.27
2019-04-14T22:26:01.692Z,4.47
2019-04-14T22:28:30.574Z,4.07
2019-04-14T22:30:59.215Z,4.37
2019-04-14T22:33:27.840Z,4.40
2019-04-14T22:35:56.796Z,4.27
2019-04-14T22:38:25.658Z,4.57
2019-04-14T22:40:55.087Z,4.40
2019-04-14T22:43:23.749Z,4.57
2019-04-14T22:45:52.756Z,3.80
2019-04-14T22:48:21.725Z,4.80
2019-04-14T22:50:50.350Z,4.27
2019-04-14T22:53:19.258Z,4.47
2019-04-14T22:55:48.116Z,4.40
2019-04-14T22:58:17.093Z,4.70
2019-04-14T23:00:53.441Z,5.10
2019-04-14T23:03:50.696Z,4.20
2019-04-14T23:06:34.241Z,4.93
2019-04-14T23:09:25.584Z,4.47
2019-04-14T23:12:03.273Z,4.37
2019-04-14T23:14:38.939Z,4.87
2019-04-14T23:17:21.870Z,5.33
2019-04-14T23:19:56.214Z,4.53
2019-04-14T23:22:42.868Z,4.67
2019-04-14T23:25:11.825Z,4.93
2019-04-14T23:27:40.452Z,4.93
2019-04-14T23:30:09.735Z,5.03
2019-04-14T23:32:38.689Z,5.23
2019-04-14T23:35:07.731Z,4.67
2019-04-14T23:37:36.345Z,4.67
2019-04-14T23:40:05.502Z,5.50
2019-04-14T23:42:34.092Z,4.70
2019-04-14T23:45:02.717Z,5.27
2019-04-14T23:47:31.624Z,4.83
2019-04-14T23:50:00.879Z,5.23
2019-04-14T23:52:29.472Z,4.47
2019-04-14T23:54:58.333Z,5.13
2019-04-14T23:57:27.668Z,4.70
2019-04-14T23:59:56.685Z,4.97
